Schedule Details


Flight Number: CTN455
Departure: Pula (LDPL) at 20:55
Arrival: Cilipi (LDDU) at 21:50
Route: LOS N606 ZDA L607 SPL UL607 NERRA

Weather Information
LDPL 172300Z 07004KT CAVOK 19/16 Q1017
LDDU 172300Z 09005KT CAVOK 20/17 Q1018
Schedule Frequency

Route Map